createdAt,value
2023-05-16T00:00:39.341Z,94958.31
2023-05-16T00:03:07.793Z,95047.72
2023-05-16T00:05:36.184Z,95031.00
2023-05-16T00:08:04.043Z,95048.91
2023-05-16T00:10:33.428Z,95047.72
2023-05-16T00:13:02.077Z,95018.44
2023-05-16T00:15:30.828Z,95024.19
2023-05-16T00:17:59.738Z,95018.75
2023-05-16T00:20:28.740Z,95027.81
2023-05-16T00:23:01.234Z,94989.00
2023-05-16T00:25:29.710Z,95024.31
2023-05-16T00:28:00.520Z,95025.00
2023-05-16T00:30:28.809Z,95009.03
2023-05-16T00:32:57.113Z,95027.59
2023-05-16T00:35:25.151Z,95007.28
2023-05-16T00:37:53.165Z,95025.19
2023-05-16T00:40:21.713Z,95025.19
2023-05-16T00:42:49.767Z,95020.13
2023-05-16T00:45:19.189Z,95014.63
2023-05-16T00:47:47.096Z,95004.50
2023-05-16T00:50:15.152Z,94988.88
2023-05-16T00:52:43.807Z,94975.28
2023-05-16T00:55:11.910Z,94984.28
2023-05-16T00:57:40.691Z,94982.75
2023-05-16T01:00:10.823Z,94981.94
2023-05-16T01:02:40.282Z,94977.75
2023-05-16T01:05:09.458Z,94985.88
2023-05-16T01:07:37.564Z,94977.69
2023-05-16T01:10:07.999Z,94989.66
2023-05-16T01:12:43.042Z,94944.19
2023-05-16T01:15:14.450Z,94992.75
2023-05-16T01:17:54.868Z,94988.81
2023-05-16T01:20:33.621Z,94991.88
2023-05-16T01:23:15.172Z,94962.31
2023-05-16T01:25:57.730Z,94977.13
2023-05-16T01:28:28.562Z,94975.56
2023-05-16T01:30:56.529Z,94953.19
2023-05-16T01:33:24.629Z,94950.38
2023-05-16T01:36:00.764Z,94952.31
2023-05-16T01:38:34.848Z,94961.47
2023-05-16T01:41:09.817Z,94954.47
2023-05-16T01:43:45.429Z,94953.66
2023-05-16T01:46:16.855Z,94942.03
2023-05-16T01:48:52.612Z,94945.97
2023-05-16T01:51:23.955Z,94943.69
2023-05-16T01:53:53.668Z,94913.53
2023-05-16T01:56:23.015Z,94918.31
2023-05-16T01:58:54.227Z,94933.31
2023-05-16T02:01:22.244Z,94937.59
2023-05-16T02:03:51.205Z,94932.91
2023-05-16T02:06:19.272Z,94935.56
2023-05-16T02:08:47.201Z,94937.41
2023-05-16T02:11:15.153Z,94931.16
2023-05-16T02:13:43.145Z,94936.56
2023-05-16T02:16:13.468Z,94899.03
2023-05-16T02:18:41.555Z,94917.03
2023-05-16T02:21:09.717Z,94929.50
2023-05-16T02:23:37.643Z,94927.22
2023-05-16T02:26:05.766Z,94868.53
2023-05-16T02:28:33.858Z,94920.22
2023-05-16T02:31:02.475Z,94921.81
2023-05-16T02:33:31.875Z,94920.22
2023-05-16T02:35:59.851Z,94915.41
2023-05-16T02:38:27.830Z,94885.22
2023-05-16T02:40:56.326Z,94934.22
2023-05-16T02:43:24.269Z,94935.06
2023-05-16T02:45:53.214Z,94937.06
2023-05-16T02:48:21.344Z,94936.31
2023-05-16T02:50:50.830Z,94919.63
2023-05-16T02:53:18.760Z,94929.09
2023-05-16T02:55:47.115Z,94930.31
2023-05-16T02:58:15.254Z,94898.78
2023-05-16T03:00:43.231Z,94923.69
2023-05-16T03:03:11.292Z,94912.47
2023-05-16T03:05:39.383Z,94901.97
2023-05-16T03:08:08.767Z,94918.44
2023-05-16T03:10:36.755Z,94916.56
2023-05-16T03:13:04.753Z,94920.41
2023-05-16T03:15:51.317Z,94907.81
2023-05-16T03:18:19.267Z,94918.31
2023-05-16T03:20:47.386Z,94919.88
2023-05-16T03:23:16.746Z,94912.91
2023-05-16T03:25:46.339Z,94914.09
2023-05-16T03:28:15.467Z,94911.41
2023-05-16T03:30:43.657Z,94918.03
2023-05-16T03:33:12.566Z,94920.28
2023-05-16T03:35:41.104Z,94916.44
2023-05-16T03:38:09.318Z,94905.09
2023-05-16T03:40:39.222Z,94916.88
2023-05-16T03:43:07.213Z,94917.34
2023-05-16T03:45:35.378Z,94903.00
2023-05-16T03:48:03.363Z,94922.81
2023-05-16T03:50:31.342Z,94910.75
2023-05-16T03:52:59.543Z,94915.22
2023-05-16T03:55:27.616Z,94921.50
2023-05-16T03:57:56.957Z,94916.41
2023-05-16T04:00:24.903Z,94918.78
2023-05-16T04:02:53.235Z,94918.78
2023-05-16T04:05:21.629Z,94899.38
2023-05-16T04:07:49.658Z,94898.22
2023-05-16T04:10:17.636Z,94903.00
2023-05-16T04:12:46.113Z,94913.59
2023-05-16T04:15:15.846Z,94919.81
2023-05-16T04:17:43.863Z,94924.88
2023-05-16T04:20:12.743Z,94926.00
2023-05-16T04:22:40.743Z,94922.88
2023-05-16T04:25:09.496Z,94904.06
2023-05-16T04:27:37.678Z,94919.81
2023-05-16T04:30:06.591Z,94919.88
2023-05-16T04:32:37.009Z,94909.00
2023-05-16T04:35:05.180Z,94913.72
2023-05-16T04:37:33.142Z,94896.22
2023-05-16T04:40:01.145Z,94892.72
2023-05-16T04:42:29.102Z,94913.53
2023-05-16T04:44:57.473Z,94900.84
2023-05-16T04:47:27.888Z,94907.88
2023-05-16T04:49:57.711Z,94902.06
2023-05-16T04:52:25.745Z,94904.00
2023-05-16T04:54:53.620Z,94907.13
2023-05-16T04:57:21.668Z,94870.81
2023-05-16T04:59:49.686Z,94905.66
2023-05-16T05:02:17.853Z,94904.63
2023-05-16T05:04:45.965Z,94904.63
2023-05-16T05:07:16.045Z,94908.88
2023-05-16T05:09:44.084Z,94894.06
2023-05-16T05:12:12.646Z,94906.56
2023-05-16T05:14:40.578Z,94907.34
2023-05-16T05:17:08.891Z,94912.38
2023-05-16T05:19:37.242Z,94908.88
2023-05-16T05:22:05.341Z,94902.31
2023-05-16T05:24:34.746Z,94912.06
2023-05-16T05:27:03.127Z,94901.16
2023-05-16T05:29:31.022Z,94904.72
2023-05-16T05:31:59.023Z,94909.06
2023-05-16T05:34:27.007Z,94901.69
2023-05-16T05:36:55.030Z,94894.44
2023-05-16T05:39:24.458Z,94894.47
2023-05-16T05:41:53.812Z,94879.69
2023-05-16T05:44:21.794Z,94883.56
2023-05-16T05:46:49.864Z,94865.59
2023-05-16T05:49:18.040Z,94875.03
2023-05-16T05:51:46.059Z,94876.94
2023-05-16T05:54:14.045Z,94877.81
2023-05-16T05:56:42.105Z,94863.38
2023-05-16T05:59:11.606Z,94881.00
2023-05-16T06:01:40.327Z,94876.72
2023-05-16T06:04:08.349Z,94882.22
2023-05-16T06:06:36.573Z,94879.50
2023-05-16T06:09:05.069Z,94877.63
2023-05-16T06:11:33.158Z,94881.81
2023-05-16T06:14:01.162Z,94848.66
2023-05-16T06:16:30.589Z,94881.50
2023-05-16T06:18:58.696Z,94873.00
2023-05-16T06:21:26.710Z,94866.94
2023-05-16T06:23:54.705Z,94870.81
2023-05-16T06:26:22.824Z,94881.31
2023-05-16T06:28:50.855Z,94887.97
2023-05-16T06:31:18.934Z,94896.16
2023-05-16T06:33:48.330Z,94881.81
2023-05-16T06:36:16.310Z,94878.69
2023-05-16T06:38:44.387Z,94886.53
2023-05-16T06:41:12.325Z,94868.69
2023-05-16T06:43:41.388Z,94872.53
2023-05-16T06:46:09.603Z,94875.97
2023-05-16T06:48:37.579Z,94881.81
2023-05-16T06:51:07.235Z,94868.56
2023-05-16T06:53:35.232Z,94849.06
2023-05-16T06:56:03.369Z,94830.59
2023-05-16T06:58:31.545Z,94854.22
2023-05-16T07:00:59.632Z,94854.63
2023-05-16T07:03:27.855Z,94856.16
2023-05-16T07:05:55.916Z,94860.81
2023-05-16T07:08:25.800Z,94857.75
2023-05-16T07:10:53.870Z,94853.91
2023-05-16T07:13:22.296Z,94847.72
2023-05-16T07:15:50.259Z,94858.66
2023-05-16T07:18:18.314Z,94856.00
2023-05-16T07:20:46.822Z,94826.09
2023-05-16T07:23:14.849Z,94824.63
2023-05-16T07:25:44.464Z,94819.28
2023-05-16T07:28:12.503Z,94805.34
2023-05-16T07:30:40.578Z,94810.81
2023-05-16T07:33:08.601Z,94820.56
2023-05-16T07:35:36.625Z,94819.03
2023-05-16T07:38:04.765Z,94807.78
2023-05-16T07:40:32.833Z,94828.94
2023-05-16T07:43:02.889Z,94827.41
2023-05-16T07:45:31.137Z,94769.16
2023-05-16T07:48:00.214Z,94837.53
2023-05-16T07:50:28.259Z,94840.66
2023-05-16T07:52:56.558Z,94836.00
2023-05-16T07:55:24.721Z,94828.66
2023-05-16T07:57:53.291Z,94799.81
2023-05-16T08:00:23.498Z,94823.22
2023-05-16T08:02:52.168Z,94831.41
2023-05-16T08:05:20.514Z,94861.41
2023-05-16T08:07:48.588Z,94837.69
2023-05-16T08:10:16.751Z,94828.78
2023-05-16T08:12:45.081Z,94812.84
2023-05-16T08:15:13.249Z,94810.88
2023-05-16T08:17:42.795Z,94798.81
2023-05-16T08:20:12.231Z,94798.81
2023-05-16T08:22:40.525Z,94779.34
2023-05-16T08:25:09.855Z,94805.88
2023-05-16T08:27:37.870Z,94803.13
2023-05-16T08:30:08.037Z,94802.34
2023-05-16T08:32:38.243Z,94808.22
2023-05-16T08:35:08.997Z,94790.31
2023-05-16T08:37:37.008Z,94798.53
2023-05-16T08:40:08.443Z,94759.13
2023-05-16T08:42:37.580Z,94798.97
2023-05-16T08:45:06.835Z,94813.00
2023-05-16T08:47:36.913Z,94806.41
2023-05-16T08:50:05.706Z,94812.22
2023-05-16T08:52:39.383Z,94800.53
2023-05-16T08:55:12.099Z,94798.97
2023-05-16T08:57:40.722Z,94805.22
2023-05-16T09:00:13.124Z,94784.53
2023-05-16T09:02:42.333Z,94793.81
2023-05-16T09:05:13.422Z,94801.97
2023-05-16T09:07:43.171Z,94793.41
2023-05-16T09:10:12.293Z,94795.72
2023-05-16T09:12:42.297Z,94775.81
2023-05-16T09:15:11.829Z,94791.47
2023-05-16T09:17:44.461Z,94749.75
2023-05-16T09:20:15.104Z,94761.03
2023-05-16T09:22:53.195Z,94780.16
2023-05-16T09:25:30.183Z,94764.16
2023-05-16T09:28:01.547Z,94763.69
2023-05-16T09:30:31.884Z,94741.47
2023-05-16T09:33:00.454Z,94794.81
2023-05-16T09:38:01.050Z,94789.84
2023-05-16T09:40:29.058Z,94798.88
2023-05-16T09:43:06.952Z,94783.34
2023-05-16T09:45:36.363Z,94789.56
2023-05-16T09:48:07.387Z,94786.81
2023-05-16T09:50:36.122Z,94798.09
2023-05-16T09:53:06.051Z,94781.72
2023-05-16T09:55:34.549Z,94781.69
2023-05-16T09:58:02.493Z,94794.94
2023-05-16T10:00:32.057Z,94781.63
2023-05-16T10:03:04.776Z,94778.91
2023-05-16T10:05:37.043Z,94778.78
2023-05-16T10:08:07.556Z,94774.97
2023-05-16T10:10:39.636Z,94765.91
2023-05-16T10:13:09.457Z,94771.75
2023-05-16T10:15:39.099Z,94756.97
2023-05-16T10:18:12.254Z,94778.28
2023-05-16T10:20:43.003Z,94773.44
2023-05-16T10:23:18.793Z,94793.44
2023-05-16T10:25:48.118Z,94777.91
2023-05-16T10:28:17.220Z,94784.50
2023-05-16T10:30:46.532Z,94768.81
2023-05-16T10:33:15.918Z,94753.13
2023-05-16T10:35:45.056Z,94739.78
2023-05-16T10:38:16.334Z,94759.50
2023-05-16T10:40:46.204Z,94744.41
2023-05-16T10:43:24.795Z,94743.28
2023-05-16T10:45:56.506Z,94725.31
2023-05-16T10:48:50.432Z,94690.81
2023-05-16T10:51:36.853Z,94698.56
2023-05-16T10:54:11.365Z,94709.22
2023-05-16T10:56:39.914Z,94703.88
2023-05-16T10:59:24.271Z,94721.81
2023-05-16T11:01:54.562Z,94742.34
2023-05-16T11:04:22.789Z,94734.50
2023-05-16T11:06:56.737Z,94727.78
2023-05-16T11:09:28.309Z,94719.66
2023-05-16T11:12:06.630Z,94734.44
2023-05-16T11:14:42.578Z,94709.47
2023-05-16T11:17:13.517Z,94728.09
2023-05-16T11:19:44.188Z,94726.56
2023-05-16T11:22:17.039Z,94726.56
2023-05-16T11:24:58.445Z,94748.50
2023-05-16T11:27:29.461Z,94752.41
2023-05-16T11:30:03.263Z,94746.88
2023-05-16T11:32:32.655Z,94760.84
2023-05-16T11:35:00.808Z,94717.16
2023-05-16T11:37:29.499Z,94740.31
2023-05-16T11:40:02.632Z,94742.66
2023-05-16T11:42:34.005Z,94734.44
2023-05-16T11:45:09.242Z,94734.78
2023-05-16T11:47:38.782Z,94731.38
2023-05-16T11:50:08.029Z,94723.66
2023-05-16T11:52:36.587Z,94669.53
2023-05-16T11:55:11.224Z,94724.31
2023-05-16T11:57:40.246Z,94719.34
2023-05-16T12:00:16.977Z,94728.19
2023-05-16T12:02:45.609Z,94708.94
2023-05-16T12:05:14.680Z,94691.06
2023-05-16T12:07:44.857Z,94693.19
2023-05-16T12:10:16.958Z,94682.81
2023-05-16T12:12:47.705Z,94685.75
2023-05-16T12:15:16.442Z,94666.97
2023-05-16T12:17:44.984Z,94690.50
2023-05-16T12:20:14.667Z,94693.03
2023-05-16T12:22:43.422Z,94696.16
2023-05-16T12:25:27.928Z,94689.75
2023-05-16T12:27:58.236Z,94696.06
2023-05-16T12:30:27.880Z,94688.34
2023-05-16T12:32:59.859Z,94668.28
2023-05-16T12:35:32.288Z,94651.03
2023-05-16T12:38:00.288Z,94689.91
2023-05-16T12:40:31.507Z,94688.47
2023-05-16T12:43:00.672Z,94677.38
2023-05-16T12:45:29.097Z,94640.28
2023-05-16T12:47:57.431Z,94696.06
2023-05-16T12:50:29.286Z,94672.44
2023-05-16T12:53:01.371Z,94699.44
2023-05-16T12:55:31.013Z,94693.44
2023-05-16T12:57:59.425Z,94699.31
2023-05-16T13:00:28.060Z,94694.69
2023-05-16T13:02:56.551Z,94702.47
2023-05-16T13:05:24.604Z,94701.31
2023-05-16T13:07:52.885Z,94706.81
2023-05-16T13:10:21.301Z,94702.59
2023-05-16T13:12:50.791Z,94709.94
2023-05-16T13:15:19.276Z,94712.69
2023-05-16T13:17:48.612Z,94695.84
2023-05-16T13:20:17.524Z,94704.78
2023-05-16T13:22:46.474Z,94701.63
2023-05-16T13:25:14.564Z,94705.09
2023-05-16T13:27:42.573Z,94707.00
2023-05-16T13:30:12.667Z,94703.03
2023-05-16T13:32:40.679Z,94699.88
2023-05-16T13:35:09.823Z,94704.53
2023-05-16T13:37:38.145Z,94695.25
2023-05-16T13:40:10.468Z,94694.84
2023-05-16T13:42:39.859Z,94705.41
2023-05-16T13:45:09.073Z,94702.31
2023-05-16T13:47:38.626Z,94706.22
2023-05-16T13:50:10.304Z,94715.63
2023-05-16T13:52:39.192Z,94682.19
2023-05-16T13:55:08.635Z,94723.88
2023-05-16T13:57:36.899Z,94723.94
2023-05-16T14:00:35.364Z,94731.66
2023-05-16T14:03:01.682Z,94734.03
2023-05-16T14:05:29.755Z,94718.88
2023-05-16T14:07:58.098Z,94729.72
2023-05-16T14:10:26.692Z,94736.41
2023-05-16T14:12:54.989Z,94744.56
2023-05-16T14:15:22.982Z,94752.34
2023-05-16T14:17:51.155Z,94748.41
2023-05-16T14:20:20.745Z,94751.50
2023-05-16T14:22:50.762Z,94752.59
2023-05-16T14:25:18.867Z,94737.25
2023-05-16T14:27:46.911Z,94749.66
2023-05-16T14:30:15.242Z,94752.00
2023-05-16T14:32:43.363Z,94768.00
2023-05-16T14:35:11.797Z,94734.00
2023-05-16T14:37:41.233Z,94748.03
2023-05-16T14:40:10.936Z,94740.69
2023-05-16T14:42:39.020Z,94770.75
2023-05-16T14:45:08.005Z,94775.91
2023-05-16T14:47:36.462Z,94777.53
2023-05-16T14:50:04.961Z,94781.56
2023-05-16T14:52:35.626Z,94791.00
2023-05-16T14:55:06.217Z,94772.06
2023-05-16T14:57:34.681Z,94784.53
2023-05-16T15:00:02.671Z,94794.75
2023-05-16T15:02:30.751Z,94776.06
2023-05-16T15:04:59.023Z,94786.69
2023-05-16T15:07:27.104Z,94790.28
2023-05-16T15:09:55.753Z,94779.03
2023-05-16T15:12:25.285Z,94792.75
2023-05-16T15:14:53.209Z,94790.41
2023-05-16T15:17:21.270Z,94795.03
2023-05-16T15:19:50.535Z,94795.00
2023-05-16T15:22:20.886Z,94808.56
2023-05-16T15:24:49.036Z,94795.66
2023-05-16T15:27:17.296Z,94792.50
2023-05-16T15:29:49.673Z,94794.03
2023-05-16T15:32:18.400Z,94805.28
2023-05-16T15:34:46.593Z,94793.22
2023-05-16T15:37:14.537Z,94806.41
2023-05-16T15:39:42.663Z,94800.56
2023-05-16T15:42:11.504Z,94790.84
2023-05-16T15:44:40.027Z,94804.34
2023-05-16T15:47:10.929Z,94805.88
2023-05-16T15:49:39.370Z,94802.34
2023-05-16T15:52:07.474Z,94802.34
2023-05-16T15:54:35.778Z,94804.81
2023-05-16T15:57:03.853Z,94801.78
2023-05-16T15:59:32.132Z,94803.69
2023-05-16T16:02:04.328Z,94794.63
2023-05-16T16:04:34.197Z,94798.84
2023-05-16T16:07:02.295Z,94802.38
2023-05-16T16:09:30.501Z,94798.88
2023-05-16T16:11:59.375Z,94795.75
2023-05-16T16:14:27.544Z,94801.59
2023-05-16T16:16:55.571Z,94807.09
2023-05-16T16:19:23.774Z,94809.44
2023-05-16T16:21:53.722Z,94825.66
2023-05-16T16:24:21.745Z,94827.75
2023-05-16T16:26:49.693Z,94828.41
2023-05-16T16:29:17.863Z,94819.81
2023-05-16T16:31:45.861Z,94800.38
2023-05-16T16:34:13.842Z,94794.88
2023-05-16T16:36:42.291Z,94778.28
2023-05-16T16:39:12.016Z,94776.50
2023-05-16T16:41:40.518Z,94752.25
2023-05-16T16:44:08.642Z,94719.66
2023-05-16T16:46:36.892Z,94721.13
2023-05-16T16:49:05.465Z,94694.69
2023-05-16T16:51:35.172Z,94686.88
2023-05-16T16:54:03.258Z,94700.03
2023-05-16T16:56:36.401Z,94684.88
2023-05-16T16:59:04.458Z,94680.63
2023-05-16T17:01:32.937Z,94679.03
2023-05-16T17:04:02.163Z,94682.13
2023-05-16T17:06:30.493Z,94668.25
2023-05-16T17:09:02.509Z,94670.56
2023-05-16T17:11:36.030Z,94662.88
2023-05-16T17:14:06.344Z,94669.72
2023-05-16T17:16:37.931Z,94676.00
2023-05-16T17:19:06.227Z,94683.00
2023-05-16T17:21:37.249Z,94667.53
2023-05-16T17:24:07.000Z,94669.09
2023-05-16T17:26:39.701Z,94681.50
2023-05-16T17:29:10.488Z,94677.59
2023-05-16T17:31:42.053Z,94672.97
2023-05-16T17:34:11.427Z,94656.38
2023-05-16T17:36:40.991Z,94653.72
2023-05-16T17:39:10.642Z,94663.75
2023-05-16T17:41:40.535Z,94699.22
2023-05-16T17:44:09.459Z,94739.16
2023-05-16T17:46:38.460Z,94722.41
2023-05-16T17:49:07.541Z,94745.16
2023-05-16T17:51:47.562Z,94739.84
2023-05-16T17:54:16.120Z,94743.03
2023-05-16T17:56:45.847Z,94732.69
2023-05-16T17:59:15.146Z,94733.16
2023-05-16T18:01:45.054Z,94722.84
2023-05-16T18:04:14.567Z,94715.91
2023-05-16T18:06:44.140Z,94711.28
2023-05-16T18:09:15.081Z,94721.81
2023-05-16T18:11:43.242Z,94726.91
2023-05-16T18:14:15.586Z,94695.44
2023-05-16T18:16:45.605Z,94680.69
2023-05-16T18:19:13.785Z,94689.31
2023-05-16T18:21:44.421Z,94673.44
2023-05-16T18:24:13.533Z,94645.03
2023-05-16T18:26:42.052Z,94679.66
2023-05-16T18:29:10.970Z,94691.72
2023-05-16T18:31:42.515Z,94688.69
2023-05-16T18:34:12.070Z,94714.38
2023-05-16T18:36:41.770Z,94710.50
2023-05-16T18:39:10.798Z,94714.41
2023-05-16T18:41:39.000Z,94686.81
2023-05-16T18:44:07.282Z,94667.41
2023-05-16T18:46:38.367Z,94672.91
2023-05-16T18:49:08.375Z,94677.94
2023-05-16T18:51:36.777Z,94669.78
2023-05-16T18:54:05.800Z,94669.09
2023-05-16T18:56:34.502Z,94616.50
2023-05-16T18:59:03.078Z,94665.22
2023-05-16T19:01:31.392Z,94680.84
2023-05-16T19:03:59.605Z,94662.53
2023-05-16T19:06:29.461Z,94664.09
2023-05-16T19:08:58.053Z,94679.66
2023-05-16T19:11:26.713Z,94678.50
2023-05-16T19:13:55.085Z,94678.09
2023-05-16T19:16:23.193Z,94686.28
2023-05-16T19:18:51.981Z,94674.97
2023-05-16T19:21:20.148Z,94679.63
2023-05-16T19:23:50.121Z,94677.69
2023-05-16T19:26:18.227Z,94676.53
2023-05-16T19:28:46.381Z,94678.88
2023-05-16T19:31:14.546Z,94682.38
2023-05-16T19:33:42.729Z,94685.09
2023-05-16T19:36:10.961Z,94683.13
2023-05-16T19:38:39.268Z,94632.84
2023-05-16T19:41:10.228Z,94680.41
2023-05-16T19:43:38.791Z,94665.22
2023-05-16T19:46:06.774Z,94661.31
2023-05-16T19:48:37.137Z,94674.16
2023-05-16T19:51:08.973Z,94656.25
2023-05-16T19:53:37.524Z,94660.13
2023-05-16T19:56:05.997Z,94544.41
2023-05-16T19:58:35.525Z,94664.00
2023-05-16T20:01:04.390Z,94650.03
2023-05-16T20:03:32.713Z,94648.47
2023-05-16T20:06:01.340Z,94648.84
2023-05-16T20:08:33.095Z,94660.13
2023-05-16T20:11:01.234Z,94613.75
2023-05-16T20:13:30.544Z,94655.50
2023-05-16T20:16:00.838Z,94627.47
2023-05-16T20:18:31.931Z,94648.50
2023-05-16T20:21:00.205Z,94657.84
2023-05-16T20:23:30.077Z,94656.31
2023-05-16T20:25:58.052Z,94637.59
2023-05-16T20:28:26.050Z,94633.72
2023-05-16T20:30:54.285Z,94643.84
2023-05-16T20:33:23.811Z,94653.19
2023-05-16T20:35:51.807Z,94645.78
2023-05-16T20:38:19.733Z,94649.69
2023-05-16T20:40:48.323Z,94642.31
2023-05-16T20:43:16.357Z,94643.88
2023-05-16T20:45:44.379Z,94669.97
2023-05-16T20:48:14.203Z,94678.88
2023-05-16T20:50:43.704Z,94677.34
2023-05-16T20:53:11.681Z,94691.34
2023-05-16T20:55:39.633Z,94686.66
2023-05-16T20:58:07.642Z,94673.41
2023-05-16T21:00:35.590Z,94661.75
2023-05-16T21:03:03.822Z,94655.88
2023-05-16T21:05:33.624Z,94640.72
2023-05-16T21:08:03.120Z,94618.06
2023-05-16T21:10:31.170Z,94670.28
2023-05-16T21:12:59.269Z,94686.22
2023-05-16T21:15:27.415Z,94661.25
2023-05-16T21:17:55.781Z,94654.66
2023-05-16T21:20:23.822Z,94665.59
2023-05-16T21:22:51.821Z,94673.78
2023-05-16T21:25:21.236Z,94667.91
2023-05-16T21:27:49.238Z,94680.38
2023-05-16T21:30:17.358Z,94670.25
2023-05-16T21:32:45.383Z,94673.75
2023-05-16T21:35:13.482Z,94654.63
2023-05-16T21:37:41.492Z,94681.47
2023-05-16T21:40:10.402Z,94532.63
2023-05-16T21:42:39.793Z,94676.38
2023-05-16T21:45:12.888Z,94689.19
2023-05-16T21:47:41.018Z,94709.00
2023-05-16T21:50:10.639Z,94711.66
2023-05-16T21:52:39.980Z,94697.97
2023-05-16T21:55:08.619Z,94689.31
2023-05-16T21:57:36.581Z,94708.03
2023-05-16T22:00:09.608Z,94676.03
2023-05-16T22:02:38.249Z,94704.19
2023-05-16T22:05:07.607Z,94701.06
2023-05-16T22:07:35.836Z,94711.13
2023-05-16T22:10:05.075Z,94719.72
2023-05-16T22:12:33.101Z,94711.91
2023-05-16T22:15:01.127Z,94709.53
2023-05-16T22:17:30.693Z,94705.72
2023-05-16T22:19:58.705Z,94708.09
2023-05-16T22:22:26.670Z,94707.75
2023-05-16T22:24:54.801Z,94689.06
2023-05-16T22:27:22.801Z,94694.97
2023-05-16T22:29:50.780Z,94701.97
2023-05-16T22:32:18.850Z,94699.56
2023-05-16T22:34:48.226Z,94701.88
2023-05-16T22:37:16.317Z,94677.69
2023-05-16T22:39:44.315Z,94694.88
2023-05-16T22:42:12.854Z,94703.44
2023-05-16T22:44:40.811Z,94712.72
2023-05-16T22:47:08.801Z,94724.31
2023-05-16T22:49:36.872Z,94728.19
2023-05-16T22:52:06.836Z,94718.84
2023-05-16T22:54:34.891Z,94718.84
2023-05-16T22:57:02.845Z,94717.28
2023-05-16T22:59:31.173Z,94708.75
2023-05-16T23:01:59.223Z,94691.56
2023-05-16T23:04:27.262Z,94700.94
2023-05-16T23:06:55.200Z,94697.38
2023-05-16T23:09:24.544Z,94704.38
2023-05-16T23:11:52.574Z,94697.38
2023-05-16T23:14:20.575Z,94676.72
2023-05-16T23:16:48.687Z,94659.50
2023-05-16T23:19:16.914Z,94689.19
2023-05-16T23:21:45.068Z,94648.56
2023-05-16T23:24:13.074Z,94689.53
2023-05-16T23:26:42.391Z,94672.38
2023-05-16T23:29:10.443Z,94695.34
2023-05-16T23:31:38.551Z,94697.69
2023-05-16T23:34:06.687Z,94684.84
2023-05-16T23:36:34.669Z,94704.66
2023-05-16T23:39:02.668Z,94699.22
2023-05-16T23:41:31.159Z,94717.03
2023-05-16T23:44:00.504Z,94709.94
2023-05-16T23:46:28.543Z,94709.16
2023-05-16T23:48:57.264Z,94694.66
2023-05-16T23:51:25.431Z,94710.63
2023-05-16T23:53:53.532Z,94705.94
2023-05-16T23:56:21.502Z,94695.06
2023-05-16T23:58:50.166Z,94697.31
